Estación meteorológica de Montseny - Vallcàrquera (Vallès Oriental, Parc Natural del Montseny)

Consulta los datos en tiempo real de la estación meteorológica de Montseny - Vallcàrquera





Hora UTC 21:55
Temperatura 10.8 ºC
Humedad 91.4 %
Pluja 0.3 mm
Velocidad viento 0.4 km/h
Dirección viento ENE
Radiación solar 0.0 W/m²

Datos diarios 2026-05-06



Hora UTC (invierno +1h; verano +2h)
Temperatura (ºC) Humedad (%) Velocidad viento (km/h) Precipitación (mm) Radiación solar (W/m²)
Hora UTC Aire Humedad Vel. Dir. Vel. Max Dir. Intent. máx 5 min. Rad. Sol.
00:05 7.6 96.7 1.8 NNE 1.8 NNE 0.0 0.0
00:10 7.6 96.9 2.1 NE 4.6 ENE 0.0 0.0
00:15 7.7 96.9 2.6 NE 4.6 NE 0.0 0.0
00:20 7.8 96.7 2.5 NE 6.4 ENE 0.0 0.0
00:25 7.8 96.5 4.1 ENE 6.7 E 0.0 0.0
00:30 7.8 96.1 1.5 N 6.0 E 0.0 0.0
00:35 7.7 96.2 1.5 NE 4.6 ENE 0.0 0.0
00:40 7.7 96.3 1.2 NNE 3.2 E 0.0 0.0
00:45 7.6 96.4 1.4 NNW 4.9 NW 0.0 0.0
00:50 7.5 96.5 1.5 NE 2.8 ENE 0.0 0.0
00:55 7.5 96.7 1.1 NNE 2.8 NE 0.0 0.0
01:00 7.5 96.8 0.8 N 3.5 NNW 0.0 0.0
01:05 7.4 96.7 1.5 N 2.8 NW 0.1 0.0
01:10 7.4 96.6 0.8 N 2.5 NNW 0.0 0.0
01:15 7.2 96.7 1.1 N 2.5 E 0.0 0.0
01:20 7.2 96.9 1.5 NNE 3.5 NNW 0.0 0.0
01:25 7.3 97.1 1.3 NNE 3.2 N 0.0 0.0
01:30 7.2 97.0 0.6 NNW 2.5 NNW 0.0 0.0
01:35 7.3 97.1 2.1 NE 5.3 ENE 0.0 0.0
01:40 7.2 96.9 0.8 NE 4.2 NE 0.0 0.0
01:45 7.3 97.2 2.0 NE 5.6 E 0.0 0.0
01:50 7.3 96.9 1.1 NNW 3.2 N 0.0 0.0
01:55 7.2 96.9 1.2 NNE 3.2 N 0.0 0.0
02:00 7.3 97.3 1.3 NNE 2.8 NE 0.0 0.0
02:05 7.3 97.0 1.8 NE 4.2 ENE 0.0 0.0
02:10 7.1 96.9 0.2 ENE 1.8 ENE 0.0 0.0
02:15 7.0 97.0 1.1 NE 3.2 ENE 0.0 0.0
02:20 7.0 97.1 0.9 N 2.1 N 0.0 0.0
02:25 6.9 97.1 1.5 NNE 4.6 ENE 0.0 0.0
02:30 6.9 97.2 0.9 NNE 2.8 N 0.0 0.0
02:35 6.9 97.2 2.4 ENE 3.9 ENE 0.0 0.0
02:40 6.9 97.4 1.9 NE 4.6 NE 0.0 0.0
02:45 6.8 96.9 0.6 WNW 2.1 NW 0.0 0.0
02:50 6.6 97.1 1.7 N 2.8 NNW 0.0 0.0
02:55 6.6 97.2 1.0 N 2.1 N 0.0 0.0
03:00 6.5 96.9 0.2 N 2.5 N 0.0 0.0
03:05 6.5 97.4 1.7 NNE 3.2 NNE 0.0 0.0
03:10 6.7 97.5 1.4 NNE 3.2 NE 0.0 0.0
03:15 6.6 97.3 1.1 NNE 3.2 ENE 0.0 0.0
03:20 6.6 97.4 1.6 N 2.5 ENE 0.0 0.0
03:25 6.5 97.3 1.4 NNE 2.8 NE 0.0 0.0
03:30 6.4 97.3 3.2 ENE 6.0 ENE 0.0 0.0
03:35 6.4 97.4 2.6 ENE 5.3 ENE 0.0 0.0
03:40 6.4 97.4 3.2 ENE 6.0 ENE 0.0 0.0
03:45 6.4 97.5 1.8 NE 3.2 NE 0.0 0.0
03:50 6.5 97.5 1.2 NNE 2.5 NE 0.0 0.0
03:55 6.4 97.4 1.8 NE 3.5 NE 0.0 0.0
04:00 6.5 97.4 2.3 NE 4.2 NE 0.1 0.0
04:05 6.5 97.3 2.1 NE 3.9 ENE 0.0 0.0
04:10 6.3 97.0 1.2 N 2.8 NNW 0.0 0.0
04:15 6.3 97.2 2.5 NE 4.6 NE 0.0 0.0
04:20 6.3 97.3 2.4 NE 4.2 NE 0.0 0.0
04:25 6.3 97.1 3.0 ENE 5.3 E 0.0 0.0
04:30 6.3 97.0 2.2 NE 4.2 ENE 0.0 0.0
04:35 6.3 97.1 2.1 NE 4.6 ENE 0.0 0.0
04:40 6.2 96.9 1.4 N 2.8 N 0.0 0.7
04:45 6.1 96.8 0.3 NE 4.6 ENE 0.0 1.2
04:50 6.1 97.3 2.8 NE 4.6 ENE 0.0 4.0
04:55 6.2 97.2 1.7 ENE 3.9 E 0.0 5.5
05:00 6.2 97.2 2.5 NE 4.6 ENE 0.0 7.7
05:05 6.3 97.2 1.8 N 3.9 ENE 0.0 10.3
05:10 6.2 97.1 1.0 ENE 2.5 E 0.0 12.1
05:15 6.3 97.3 2.2 NE 4.2 NE 0.0 14.6
05:20 6.3 97.3 1.4 NNE 3.9 ENE 0.0 16.9
05:25 6.3 97.2 0.7 NE 1.8 ENE 0.0 19.0
05:30 6.4 97.3 2.8 ENE 5.3 E 0.0 24.0
05:35 6.5 97.4 3.0 NE 5.3 ENE 0.0 24.9
05:40 6.6 97.3 2.0 NE 3.9 NE 0.0 25.7
05:45 6.6 97.1 1.2 NNE 3.2 ENE 0.0 25.8
05:50 6.5 97.1 1.8 N 4.2 NNE 0.0 28.7
05:55 6.6 97.2 2.1 NE 4.2 ENE 0.0 30.7
06:00 6.6 97.2 2.8 ENE 5.3 E 0.0 32.4
06:05 7.0 97.7 3.5 NE 6.0 ENE 0.0 154.7
06:10 7.5 97.7 1.1 NNW 3.2 WNW 0.1 205.5
06:15 8.1 97.6 1.0 N 2.8 N 0.0 226.3
06:20 8.6 97.4 0.1 SSE 1.8 SSE 0.0 246.1
06:25 9.1 96.9 0.3 NNW 1.4 N 0.0 265.2
06:30 9.2 95.2 0.3 WNW 1.4 NNW 0.0 285.8
06:35 9.5 94.4 0.7 SSW 2.1 SSW 0.0 306.4
06:40 9.8 93.5 0.6 SSW 2.5 SSW 0.0 325.9
06:45 10.1 92.6 0.7 S 2.5 WSW 0.0 344.9
06:50 11.1 86.5 0.5 S 2.1 SW 0.0 340.0
06:55 11.0 87.6 1.0 SSE 2.5 S 0.0 379.0
07:00 11.5 87.3 1.2 S 2.8 S 0.0 396.1
07:05 11.4 85.1 0.8 S 3.5 SW 0.0 412.2
07:10 11.5 82.8 1.0 SSE 2.8 SSW 0.0 428.9
07:15 11.7 83.7 1.5 SSW 3.2 SSW 0.0 446.1
07:20 11.6 82.5 1.3 SSW 3.2 SSW 0.0 463.3
07:25 12.1 82.3 0.6 S 3.5 S 0.0 478.4
07:30 12.4 83.0 2.4 SSW 7.8 SW 0.0 496.4
07:35 12.2 82.2 2.5 SSW 7.8 S 0.0 514.0
07:40 12.3 80.0 2.7 SSW 5.3 SSW 0.0 530.0
07:45 12.5 80.9 2.7 SSW 8.1 SSW 0.0 546.7
07:50 12.8 77.6 3.1 SSW 8.8 SSW 0.0 563.7
07:55 13.2 78.2 1.8 SW 5.3 W 0.0 579.6
08:05 13.7 72.0 1.7 SSW 3.9 SSW 0.0 608.6
08:10 14.0 72.3 1.2 S 3.5 SSE 0.0 623.1
08:15 14.7 64.1 2.2 SSW 6.4 S 0.0 639.6
08:20 14.4 66.2 3.2 SSW 6.7 S 0.0 656.3
08:25 14.5 66.6 2.4 SSW 4.9 S 0.0 670.7
08:30 14.7 62.9 2.5 SSE 8.1 S 0.0 682.1
08:35 14.9 68.8 4.0 SSW 8.5 SSW 0.0 694.4
08:40 15.2 66.6 1.9 S 5.6 SSE 0.0 706.4
08:45 15.8 63.1 2.4 S 6.4 S 0.0 719.9
08:50 15.7 62.6 2.2 S 6.0 SSW 0.0 731.4
08:55 16.0 64.1 2.5 SSE 5.6 SSE 0.0 743.8
09:00 16.2 61.2 3.2 ESE 9.9 S 0.0 757.6
09:05 15.9 61.5 4.5 SSW 13.1 SSW 0.0 770.4
09:10 15.5 61.4 4.0 SSE 9.2 SW 0.0 783.1
09:15 15.8 60.1 3.2 S 9.2 SSW 0.0 792.4
09:20 16.1 60.8 3.0 SSE 9.5 SSW 0.0 804.0
09:25 16.5 56.2 3.3 SE 7.1 E 0.0 811.0
09:30 16.3 53.2 2.0 E 5.6 ENE 0.0 822.0
09:35 16.2 53.7 2.3 NE 4.6 NE 0.0 834.0
09:40 16.6 55.5 1.8 S 6.7 WSW 0.0 847.0
09:45 17.1 52.5 1.7 S 4.6 SSE 0.0 860.0
09:50 17.4 54.9 3.6 S 9.2 SSW 0.0 874.0
09:55 17.1 52.4 4.0 SW 9.2 WSW 0.0 748.5
10:00 16.3 53.7 1.3 S 6.0 S 0.0 228.8
10:05 16.2 55.7 2.5 SSW 6.0 SW 0.0 794.9
10:10 16.7 53.6 4.0 S 9.9 SSW 0.0 902.0
10:15 17.1 52.7 3.0 SSW 9.2 S 0.0 918.0
10:20 17.4 50.8 4.8 SSW 10.2 WSW 0.0 824.0
10:25 17.3 50.9 2.9 ESE 6.7 SW 0.0 977.0
10:30 17.3 50.2 2.4 NNE 7.1 NW 0.0 942.0
10:35 17.6 51.5 3.5 E 9.9 E 0.0 951.0
10:40 17.6 52.1 4.3 SE 12.7 S 0.0 977.0
10:45 17.9 53.2 3.7 ESE 10.2 SE 0.0 1016.0
10:50 17.9 52.6 1.8 SSE 6.4 SW 0.0 758.1
10:55 18.3 52.1 3.0 SW 9.5 SSW 0.0 1035.0
11:00 18.6 49.6 3.0 ENE 10.2 SW 0.0 927.0
11:05 17.8 50.8 4.1 SW 13.4 SSW 0.0 772.3
11:10 18.2 51.2 3.3 S 8.5 S 0.0 968.0
11:15 18.1 50.9 1.9 SSE 7.4 S 0.0 359.8
11:20 17.1 51.3 3.6 W 8.1 SSW 0.0 562.3
11:25 17.4 50.0 2.7 SSW 7.4 S 0.0 577.7
11:30 17.3 50.4 4.6 SE 9.9 ENE 0.0 493.0
11:35 16.5 51.7 1.9 SW 4.6 NNE 0.0 294.3
11:40 16.7 51.7 4.1 NW 9.5 W 0.0 864.0
11:45 17.3 51.0 3.8 NW 12.4 NW 0.0 581.6
11:50 17.5 52.5 3.1 SSW 6.0 WSW 0.0 526.6
11:55 17.3 49.3 3.8 ENE 12.7 E 0.0 453.7
12:00 16.6 50.1 3.2 NNE 9.5 E 0.0 363.6
12:05 16.9 52.3 3.1 SSE 10.2 ENE 0.0 732.8
12:10 18.1 51.4 4.9 SE 15.5 ENE 0.0 1080.0
12:15 18.5 47.9 2.9 S 7.8 SSE 0.0 844.0
12:20 18.0 48.5 2.8 ESE 7.1 ESE 0.0 400.0
12:25 17.4 49.5 4.2 SW 12.7 N 0.0 277.5
12:30 17.1 50.6 2.9 NNE 14.5 NNW 0.0 816.0
12:35 17.8 49.6 3.6 E 10.2 E 0.0 341.4
12:40 17.5 50.7 1.9 SW 5.3 SSW 0.0 307.2
12:45 17.4 50.3 3.1 ESE 7.1 ESE 0.0 413.1
12:50 17.7 48.5 3.6 N 11.3 W 0.0 592.9
12:55 18.4 46.9 4.3 E 13.4 NW 0.0 803.0
13:00 18.1 46.2 4.0 NNW 12.0 NE 0.0 257.2
13:05 17.6 48.9 4.3 SSW 18.4 SE 0.0 480.6
13:10 17.0 53.2 5.9 SW 15.9 SW 0.0 354.9
13:15 16.6 55.2 4.6 ENE 9.9 ENE 0.0 274.6
13:20 16.6 55.2 1.8 NE 9.2 E 0.0 682.6
13:25 17.2 54.4 3.5 NE 9.9 E 0.0 697.1
13:30 17.3 53.6 4.0 NE 10.6 NE 0.0 235.5
13:35 16.4 54.2 6.1 W 10.9 ENE 0.0 338.1
13:40 16.7 53.5 4.5 NNW 12.0 NE 0.0 998.0
13:45 17.5 52.4 2.4 SE 6.7 N 0.0 889.0
13:50 17.8 50.9 3.9 WSW 10.6 WNW 0.0 927.0
13:55 18.0 50.6 4.9 S 14.8 SW 0.0 925.0
14:00 17.9 48.9 3.2 NE 10.2 ENE 0.0 447.2
14:05 17.1 52.1 3.6 SE 12.4 S 0.0 395.3
14:10 17.3 52.2 3.1 ESE 10.9 SW 0.0 840.0
14:15 17.8 50.0 4.0 ENE 11.6 SE 0.0 889.0
14:20 18.1 48.9 4.9 NNW 15.5 E 0.0 780.9
14:25 17.6 49.4 4.5 SW 13.4 E 0.0 472.7
14:30 17.4 48.8 1.8 N 5.6 N 0.0 651.4
14:35 18.1 49.5 2.3 SSE 9.2 SSE 0.0 766.7
14:40 18.3 45.9 4.1 NE 14.5 SW 0.0 746.2
14:45 17.9 47.5 4.4 SSE 11.6 W 0.0 703.3
14:50 18.2 47.9 4.9 NNE 15.5 NNW 0.0 722.7
14:55 18.4 46.5 3.2 NNE 9.2 SSE 0.0 700.5
15:00 18.6 46.8 3.4 NNW 9.5 W 0.0 687.8
15:05 18.9 45.9 3.7 NW 10.6 WNW 0.0 669.8
15:10 18.7 45.5 4.5 S 14.5 SSW 0.0 650.3
15:15 18.1 47.2 4.7 SE 11.6 SSW 0.0 636.0
15:20 18.3 46.5 5.5 WSW 14.5 WSW 0.0 620.8
15:25 18.5 46.9 3.2 WSW 10.6 S 0.0 603.5
15:30 18.5 46.1 3.7 NNE 10.9 E 0.0 586.7
15:35 18.0 49.5 4.3 SE 16.9 ENE 0.0 573.7
15:40 18.1 48.0 4.1 S 9.9 SW 0.0 559.4
15:45 18.1 47.8 3.1 S 10.2 SSW 0.0 539.0
15:50 18.2 47.7 2.7 SSW 9.5 W 0.0 522.9
15:55 18.2 48.8 4.0 SE 12.0 SE 0.0 505.3
16:00 17.9 48.3 2.4 NW 8.1 SW 0.0 489.4
16:05 18.4 47.0 2.4 SW 8.8 SW 0.0 473.2
16:10 18.3 46.1 3.1 SW 8.1 SSW 0.0 460.3
16:15 18.2 47.4 1.9 NNE 6.0 NE 0.0 442.2
16:20 18.4 47.0 2.1 S 7.8 WNW 0.0 425.2
16:25 18.5 47.0 2.8 SSW 10.2 SSW 0.0 410.2
16:30 17.9 46.8 4.4 SW 11.3 WSW 0.0 392.0
16:35 17.3 48.0 3.3 SSW 9.9 WSW 0.0 374.7
16:40 17.3 49.7 2.9 WSW 10.2 W 0.0 359.8
16:45 17.7 49.5 2.5 SW 6.4 SW 0.0 345.3
16:50 17.8 49.5 3.7 SSW 11.3 SSW 0.0 328.1
16:55 17.5 50.1 4.8 S 13.8 SSW 0.0 308.2
17:00 16.8 52.6 3.0 SW 10.2 WSW 0.0 293.9
17:05 17.1 53.1 3.8 SW 7.1 SSW 0.0 276.8
17:10 17.0 53.6 3.0 SW 8.8 SSW 0.0 258.7
17:15 16.8 55.6 3.1 SSW 8.1 SSW 0.0 242.1
17:20 17.0 55.5 2.7 SSW 8.8 SSW 0.0 227.6
17:25 16.7 56.8 3.8 SSW 8.1 SW 0.0 213.4
17:30 16.1 59.7 3.0 SE 9.2 S 0.0 185.3
17:35 15.5 62.3 2.9 SSE 9.9 SSE 0.0 90.6
17:40 15.3 62.8 3.5 W 10.9 W 0.0 50.6
17:45 15.1 62.0 3.2 SSW 10.9 SSW 0.0 42.5
17:50 14.9 62.2 2.2 S 7.4 SSW 0.0 31.7
17:55 14.8 62.3 2.6 S 9.9 ESE 0.0 29.6
18:00 14.6 64.2 1.8 SSW 8.1 SW 0.0 27.8
18:05 14.5 65.4 2.2 NE 7.8 ENE 0.0 26.0
18:10 14.5 65.1 2.6 NE 8.8 ENE 0.0 24.8
18:15 14.3 67.5 1.1 NW 2.5 NW 0.0 23.2
18:20 14.0 69.6 2.4 NE 7.8 E 0.0 21.7
18:25 13.9 71.9 1.1 NNW 3.9 N 0.0 22.1
18:30 13.8 73.6 1.0 NW 2.5 NE 0.0 21.9
18:35 13.7 74.2 0.2 NNE 1.8 N 0.0 18.6
18:40 13.5 76.0 0.7 NNW 2.1 NNW 0.0 12.6
18:45 13.3 77.4 1.6 NE 2.5 ESE 0.0 7.7
18:50 13.2 79.4 2.3 NE 8.1 ENE 0.0 4.0
18:55 13.3 78.8 1.4 E 3.5 E 0.0 1.1
19:00 13.1 80.2 1.8 E 5.6 E 0.0 0.4
19:05 13.3 82.1 5.5 ENE 9.9 E 0.0 0.6
19:10 13.4 81.8 4.3 ENE 9.9 E 0.0 0.0
19:15 13.4 81.8 2.2 E 6.0 E 0.0 0.0
19:20 13.2 82.8 1.2 SW 5.3 WNW 0.0 0.0
19:25 12.9 84.3 0.7 SW 3.2 SSW 0.0 0.0
19:30 12.7 85.3 0.8 ESE 4.2 SE 0.0 0.0
19:35 12.6 85.5 0.9 NE 2.8 ENE 0.0 0.0
19:40 12.5 85.8 0.8 NW 2.5 NW 0.0 0.0
19:45 12.4 87.0 1.0 S 3.9 SSW 0.0 0.0
19:50 12.5 87.7 0.9 S 4.2 S 0.0 0.0
19:55 12.5 87.5 0.4 ENE 2.5 SE 0.0 0.0
20:00 12.3 87.5 1.3 NE 4.2 E 0.0 0.0
20:05 11.9 88.6 1.8 NNE 4.9 N 0.0 0.0
20:10 11.8 88.5 2.7 NE 6.4 ENE 0.0 0.0
20:15 11.5 89.0 2.1 NE 6.4 E 0.0 0.0
20:20 11.2 89.0 2.4 ENE 4.6 E 0.0 0.0
20:25 11.4 89.5 2.4 NE 4.2 ENE 0.0 0.0
20:30 11.7 88.6 2.0 NE 3.2 ENE 0.0 0.0
20:35 11.6 89.2 2.4 ENE 3.9 ENE 0.0 0.0
20:40 11.5 90.2 1.6 NE 4.2 ENE 0.0 0.0
20:45 11.6 89.9 1.1 NNE 2.5 NE 0.0 0.0
20:50 11.5 89.7 1.7 ENE 5.3 ENE 0.0 0.0
20:55 11.5 89.5 3.4 NE 6.0 ENE 0.0 0.0
21:00 11.5 89.2 1.7 NE 6.0 ENE 0.0 0.0
21:05 11.4 88.9 2.9 ENE 4.6 ENE 0.0 0.0
21:10 11.3 88.8 1.4 ENE 3.9 ENE 0.0 0.0
21:15 11.2 89.6 1.0 NNW 3.2 ENE 0.0 0.0
21:20 11.1 89.9 0.9 NNW 2.8 NNW 0.0 0.0
21:25 10.9 91.4 1.8 N 3.5 NNW 0.0 0.0
21:30 10.9 91.5 0.0 NNE 0.0 N 0.0 0.0
21:35 10.8 92.1 2.6 ENE 4.6 ENE 0.0 0.0
21:40 10.8 92.3 2.0 NE 2.8 ENE 0.0 0.0
21:45 10.8 91.9 2.5 E 7.1 ENE 0.0 0.0
21:50 10.8 91.5 2.0 ENE 6.0 ENE 0.0 0.0
21:55 10.8 91.4 0.4 ENE 1.8 ENE 0.0 0.0
Máxima 18.9 97.7 6.1 W 18.4 SE 0.1 1080.0
Mínima 6.1 45.5
Total 0.3